KCGI/CGI METAR and TAF weather

Enter ICAO airport designator
Station Type Date Time Source
KCGI METAR 2020/09/24 10:32 UTC NOAA

KCGI 241032Z AUTO 09005KT 5SM BR FEW009 BKN016 OVC022 14/13 A2999 RMK AO2 T01440133


Station Type Date Time Source
KCGI Decoded METAR 2020/09/24 10:32 UTC NOAA

CAPE GIRARDEAU REGIONAL, MO, United States (KCGI) 37-14N 089-35W 102M
Sep 24, 2020 - 06:32 AM EDT / 2020.09.24 1032 UTC
Wind: from the E (090 degrees) at 6 MPH (5 KT):0
Visibility: 5 mile(s):0
Sky conditions: overcast
Weather: mist
Temperature: 57.9 F (14.4 C)
Dew Point: 55.9 F (13.3 C)
Relative Humidity: 93%
Pressure (altimeter): 29.99 in. Hg (1015 hPa)
ob: KCGI 241032Z AUTO 09005KT 5SM BR FEW009 BKN016 OVC022 14/13 A2999 RMK AO2 T01440133
cycle: 10

Station Type Date Time Source
KCGI TAF 2020/09/24 06:22 UTC NOAA

TAF KCGI 240520Z 2406/2506 15003KT P6SM VCSH BKN040
FM240700 00000KT P6SM BKN027 OVC040
FM241100 00000KT P6SM BKN015
FM241600 07005KT P6SM OVC025

Example: see airport list